createdAt,value
2023-05-16T00:01:21.991Z,13.58
2023-05-16T00:03:53.921Z,13.52
2023-05-16T00:06:25.495Z,13.49
2023-05-16T00:08:57.233Z,13.53
2023-05-16T00:11:29.015Z,13.51
2023-05-16T00:14:00.805Z,13.48
2023-05-16T00:16:32.677Z,13.46
2023-05-16T00:19:04.149Z,13.48
2023-05-16T00:21:35.630Z,13.52
2023-05-16T00:24:07.096Z,13.49
2023-05-16T00:26:38.533Z,13.49
2023-05-16T00:29:09.969Z,13.52
2023-05-16T00:31:41.478Z,13.50
2023-05-16T00:34:12.993Z,13.48
2023-05-16T00:36:44.762Z,13.45
2023-05-16T00:39:16.218Z,13.39
2023-05-16T00:41:48.076Z,13.40
2023-05-16T00:44:19.854Z,13.42
2023-05-16T00:46:51.656Z,13.39
2023-05-16T00:49:23.556Z,13.31
2023-05-16T00:51:54.989Z,13.30
2023-05-16T00:54:26.614Z,13.30
2023-05-16T00:56:58.061Z,13.18
2023-05-16T00:59:29.810Z,13.15
2023-05-16T01:02:01.367Z,13.13
2023-05-16T01:04:33.181Z,13.07
2023-05-16T01:07:04.621Z,13.03
2023-05-16T01:09:36.083Z,12.98
2023-05-16T01:12:07.530Z,12.94
2023-05-16T01:14:38.996Z,12.92
2023-05-16T01:17:10.744Z,12.91
2023-05-16T01:19:42.369Z,12.83
2023-05-16T01:22:14.356Z,12.83
2023-05-16T01:24:45.791Z,12.80
2023-05-16T01:27:17.678Z,12.71
2023-05-16T01:29:49.146Z,12.64
2023-05-16T01:32:20.972Z,12.62
2023-05-16T01:34:52.462Z,12.61
2023-05-16T01:37:24.276Z,12.56
2023-05-16T01:39:55.777Z,12.59
2023-05-16T01:42:27.631Z,12.48
2023-05-16T01:44:59.289Z,12.32
2023-05-16T01:47:31.074Z,12.29
2023-05-16T01:50:02.788Z,12.17
2023-05-16T01:52:34.433Z,12.17
2023-05-16T01:55:06.022Z,12.11
2023-05-16T01:57:37.494Z,12.11
2023-05-16T02:00:09.250Z,12.16
2023-05-16T02:02:40.794Z,12.19
2023-05-16T02:05:12.333Z,12.04
2023-05-16T02:07:43.784Z,11.92
2023-05-16T02:10:15.546Z,11.82
2023-05-16T02:12:47.088Z,11.91
2023-05-16T02:15:18.961Z,11.95
2023-05-16T02:17:50.520Z,11.83
2023-05-16T02:20:22.037Z,11.85
2023-05-16T02:22:53.792Z,11.84
2023-05-16T02:25:25.572Z,11.83
2023-05-16T02:27:57.639Z,11.76
2023-05-16T02:30:29.101Z,11.75
2023-05-16T02:33:00.676Z,11.80
2023-05-16T02:35:32.184Z,11.86
2023-05-16T02:38:03.651Z,11.85
2023-05-16T02:40:35.147Z,11.80
2023-05-16T02:43:06.640Z,11.75
2023-05-16T02:45:38.124Z,11.73
2023-05-16T02:48:09.697Z,11.77
2023-05-16T02:50:41.221Z,11.81
2023-05-16T02:53:12.669Z,11.73
2023-05-16T02:55:44.144Z,11.80
2023-05-16T02:58:15.657Z,11.71
2023-05-16T03:00:47.210Z,11.72
2023-05-16T03:03:18.801Z,11.65
2023-05-16T03:05:50.713Z,11.67
2023-05-16T03:08:22.171Z,11.53
2023-05-16T03:10:53.899Z,11.64
2023-05-16T03:13:25.375Z,11.65
2023-05-16T03:15:57.247Z,11.65
2023-05-16T03:18:29.194Z,11.54
2023-05-16T03:21:00.760Z,11.53
2023-05-16T03:23:32.744Z,11.47
2023-05-16T03:26:04.194Z,11.47
2023-05-16T03:28:35.655Z,11.44
2023-05-16T03:31:07.178Z,11.42
2023-05-16T03:33:38.719Z,11.45
2023-05-16T03:36:10.188Z,11.41
2023-05-16T03:38:41.934Z,11.50
2023-05-16T03:41:13.409Z,11.58
2023-05-16T03:43:44.923Z,11.45
2023-05-16T03:46:16.418Z,11.35
2023-05-16T03:48:48.266Z,11.29
2023-05-16T03:51:19.727Z,11.20
2023-05-16T03:53:51.471Z,11.26
2023-05-16T03:56:23.230Z,11.28
2023-05-16T03:58:54.699Z,11.15
2023-05-16T04:01:26.201Z,11.10
2023-05-16T04:03:57.660Z,11.07
2023-05-16T04:06:29.295Z,11.10
2023-05-16T04:09:00.731Z,10.91
2023-05-16T04:11:32.533Z,10.95
2023-05-16T04:14:04.156Z,11.05
2023-05-16T04:16:35.804Z,11.08
2023-05-16T04:19:07.413Z,11.07
2023-05-16T04:21:38.933Z,11.10
2023-05-16T04:24:10.401Z,11.04
2023-05-16T04:26:42.112Z,11.13
2023-05-16T04:29:13.562Z,11.07
2023-05-16T04:31:45.387Z,11.10
2023-05-16T04:34:17.069Z,11.06
2023-05-16T04:36:48.533Z,10.96
2023-05-16T04:39:20.021Z,10.84
2023-05-16T04:41:51.511Z,10.92
2023-05-16T04:44:23.388Z,10.89
2023-05-16T04:46:54.912Z,10.84
2023-05-16T04:49:26.788Z,10.87
2023-05-16T04:51:58.250Z,10.93
2023-05-16T04:54:30.184Z,11.01
2023-05-16T04:57:01.645Z,10.76
2023-05-16T04:59:33.525Z,10.90
2023-05-16T05:02:06.395Z,10.79
2023-05-16T05:04:37.978Z,10.90
2023-05-16T05:07:09.846Z,11.02
2023-05-16T05:09:41.331Z,10.93
2023-05-16T05:12:12.981Z,10.85
2023-05-16T05:14:44.450Z,10.88
2023-05-16T05:17:16.290Z,11.01
2023-05-16T05:19:47.798Z,10.97
2023-05-16T05:22:19.436Z,10.97
2023-05-16T05:24:50.899Z,10.90
2023-05-16T05:27:22.707Z,10.84
2023-05-16T05:29:54.197Z,10.88
2023-05-16T05:32:25.992Z,11.04
2023-05-16T05:34:57.788Z,11.00
2023-05-16T05:37:29.256Z,11.02
2023-05-16T05:40:01.043Z,11.01
2023-05-16T05:42:32.510Z,11.11
2023-05-16T05:45:04.335Z,11.07
2023-05-16T05:47:35.991Z,11.14
2023-05-16T05:50:07.981Z,11.18
2023-05-16T05:52:39.466Z,11.15
2023-05-16T05:55:11.532Z,11.49
2023-05-16T05:57:43.022Z,11.52
2023-05-16T06:00:14.929Z,11.69
2023-05-16T06:02:46.436Z,11.57
2023-05-16T06:05:18.406Z,11.66
2023-05-16T06:07:50.318Z,11.71
2023-05-16T06:10:22.118Z,11.78
2023-05-16T06:12:54.245Z,11.86
2023-05-16T06:15:25.895Z,11.88
2023-05-16T06:17:58.087Z,12.14
2023-05-16T06:20:29.685Z,12.11
2023-05-16T06:23:01.519Z,11.97
2023-05-16T06:25:32.988Z,11.94
2023-05-16T06:28:04.838Z,12.01
2023-05-16T06:30:36.308Z,12.44
2023-05-16T06:33:08.139Z,12.56
2023-05-16T06:35:40.017Z,12.63
2023-05-16T06:38:12.093Z,12.30
2023-05-16T06:40:43.937Z,12.34
2023-05-16T06:43:15.506Z,12.28
2023-05-16T06:45:47.291Z,12.03
2023-05-16T06:48:18.844Z,12.39
2023-05-16T06:50:50.420Z,12.17
2023-05-16T06:53:21.993Z,12.52
2023-05-16T06:55:53.925Z,12.44
2023-05-16T06:58:25.435Z,12.38
2023-05-16T07:00:57.364Z,12.46
2023-05-16T07:03:29.278Z,12.62
2023-05-16T07:06:01.259Z,12.63
2023-05-16T07:08:33.188Z,12.59
2023-05-16T07:11:04.783Z,12.50
2023-05-16T07:13:36.332Z,12.25
2023-05-16T07:16:07.914Z,12.29
2023-05-16T07:18:39.573Z,12.36
2023-05-16T07:21:11.105Z,12.35
2023-05-16T07:23:42.913Z,12.41
2023-05-16T07:26:14.401Z,12.53
2023-05-16T07:28:46.385Z,12.52
2023-05-16T07:31:17.942Z,12.55
2023-05-16T07:33:49.802Z,12.84
2023-05-16T07:36:21.663Z,13.22
2023-05-16T07:38:53.379Z,13.32
2023-05-16T07:41:25.184Z,13.41
2023-05-16T07:43:56.806Z,13.67
2023-05-16T07:46:28.782Z,13.76
2023-05-16T07:49:00.322Z,13.76
2023-05-16T07:51:32.152Z,13.81
2023-05-16T07:54:03.683Z,14.09
2023-05-16T07:56:35.209Z,13.91
2023-05-16T07:59:06.780Z,14.09
2023-05-16T08:01:38.313Z,13.75
2023-05-16T08:04:09.843Z,13.41
2023-05-16T08:06:41.411Z,13.42
2023-05-16T08:09:12.954Z,13.36
2023-05-16T08:11:44.507Z,13.46
2023-05-16T08:14:16.279Z,13.26
2023-05-16T08:16:47.855Z,13.29
2023-05-16T08:19:19.444Z,13.07
2023-05-16T08:21:51.018Z,13.13
2023-05-16T08:24:22.856Z,13.24
2023-05-16T08:26:54.376Z,13.35
2023-05-16T08:29:26.394Z,13.55
2023-05-16T08:31:58.017Z,13.53
2023-05-16T08:34:30.062Z,13.30
2023-05-16T08:37:01.616Z,13.13
2023-05-16T08:39:33.482Z,12.76
2023-05-16T08:42:05.354Z,12.87
2023-05-16T08:44:36.939Z,13.17
2023-05-16T08:47:08.901Z,13.26
2023-05-16T08:49:40.477Z,13.03
2023-05-16T08:52:12.339Z,13.12
2023-05-16T08:54:43.817Z,13.00
2023-05-16T08:57:15.690Z,12.84
2023-05-16T08:59:47.206Z,13.19
2023-05-16T09:02:19.063Z,13.05
2023-05-16T09:04:50.593Z,13.20
2023-05-16T09:07:22.682Z,13.19
2023-05-16T09:09:54.255Z,13.28
2023-05-16T09:12:26.111Z,13.30
2023-05-16T09:14:57.983Z,13.26
2023-05-16T09:17:38.978Z,13.29
2023-05-16T09:20:13.043Z,13.48
2023-05-16T09:22:44.533Z,13.62
2023-05-16T09:25:28.690Z,13.37
2023-05-16T09:28:03.120Z,13.65
2023-05-16T09:30:35.388Z,13.53
2023-05-16T09:33:07.012Z,13.55
2023-05-16T09:38:12.945Z,13.89
2023-05-16T09:40:44.498Z,13.87
2023-05-16T09:43:16.635Z,13.83
2023-05-16T09:45:49.211Z,13.71
2023-05-16T09:48:21.180Z,13.63
2023-05-16T09:50:52.735Z,13.36
2023-05-16T09:53:24.610Z,13.54
2023-05-16T09:55:56.105Z,13.54
2023-05-16T09:58:28.024Z,13.44
2023-05-16T10:00:59.581Z,13.47
2023-05-16T10:03:31.313Z,13.54
2023-05-16T10:06:02.892Z,14.03
2023-05-16T10:08:34.410Z,14.06
2023-05-16T10:11:05.965Z,14.18
2023-05-16T10:13:37.679Z,14.38
2023-05-16T10:16:09.282Z,14.32
2023-05-16T10:18:40.917Z,14.30
2023-05-16T10:21:12.784Z,14.32
2023-05-16T10:23:44.675Z,14.19
2023-05-16T10:26:16.550Z,14.15
2023-05-16T10:28:48.137Z,14.15
2023-05-16T10:31:19.941Z,14.47
2023-05-16T10:33:51.473Z,14.54
2023-05-16T10:36:23.362Z,14.57
2023-05-16T10:38:54.846Z,14.66
2023-05-16T10:41:26.523Z,15.14
2023-05-16T10:43:58.039Z,15.62
2023-05-16T10:46:29.980Z,15.92
2023-05-16T10:49:01.639Z,15.92
2023-05-16T10:51:33.498Z,15.26
2023-05-16T10:54:05.423Z,15.00
2023-05-16T10:56:36.971Z,14.65
2023-05-16T10:59:08.787Z,14.18
2023-05-16T11:01:40.336Z,13.89
2023-05-16T11:04:12.089Z,13.91
2023-05-16T11:06:43.613Z,14.05
2023-05-16T11:09:15.169Z,14.30
2023-05-16T11:11:49.039Z,14.44
2023-05-16T11:14:21.479Z,14.43
2023-05-16T11:16:53.003Z,14.96
2023-05-16T11:19:24.924Z,15.06
2023-05-16T11:21:56.467Z,14.95
2023-05-16T11:24:28.418Z,15.19
2023-05-16T11:27:00.088Z,15.15
2023-05-16T11:29:31.925Z,15.53
2023-05-16T11:32:03.940Z,15.39
2023-05-16T11:34:35.545Z,15.81
2023-05-16T11:37:07.092Z,15.65
2023-05-16T11:39:38.637Z,15.43
2023-05-16T11:42:10.534Z,14.96
2023-05-16T11:44:42.024Z,14.45
2023-05-16T11:47:13.882Z,14.63
2023-05-16T11:49:46.981Z,14.96
2023-05-16T11:52:19.663Z,15.35
2023-05-16T11:54:51.502Z,15.80
2023-05-16T11:57:23.032Z,15.81
2023-05-16T11:59:55.043Z,15.52
2023-05-16T12:02:26.663Z,16.59
2023-05-16T12:04:58.532Z,17.70
2023-05-16T12:07:30.023Z,18.24
2023-05-16T12:10:01.821Z,19.21
2023-05-16T12:12:33.323Z,18.25
2023-05-16T12:15:05.179Z,18.15
2023-05-16T12:17:36.690Z,17.57
2023-05-16T12:20:08.490Z,18.32
2023-05-16T12:22:39.963Z,18.11
2023-05-16T12:25:11.955Z,17.71
2023-05-16T12:27:45.710Z,17.55
2023-05-16T12:30:17.706Z,17.61
2023-05-16T12:32:49.638Z,17.04
2023-05-16T12:35:21.319Z,17.15
2023-05-16T12:37:53.158Z,17.30
2023-05-16T12:40:24.667Z,17.10
2023-05-16T12:42:56.515Z,17.74
2023-05-16T12:45:28.032Z,17.97
2023-05-16T12:47:59.991Z,18.07
2023-05-16T12:50:31.564Z,18.13
2023-05-16T12:53:03.333Z,18.00
2023-05-16T12:55:34.799Z,17.59
2023-05-16T12:58:06.878Z,17.46
2023-05-16T13:00:38.375Z,18.81
2023-05-16T13:03:10.527Z,18.86
2023-05-16T13:05:42.084Z,20.11
2023-05-16T13:08:13.920Z,21.04
2023-05-16T13:10:45.411Z,21.88
2023-05-16T13:13:25.172Z,20.52
2023-05-16T13:16:01.139Z,21.41
2023-05-16T13:18:32.718Z,22.26
2023-05-16T13:21:04.567Z,21.68
2023-05-16T13:23:36.065Z,22.46
2023-05-16T13:26:07.738Z,21.96
2023-05-16T13:28:39.202Z,20.75
2023-05-16T13:31:10.956Z,22.48
2023-05-16T13:33:42.502Z,22.84
2023-05-16T13:36:14.359Z,23.25
2023-05-16T13:38:45.900Z,22.65
2023-05-16T13:41:17.408Z,22.78
2023-05-16T13:43:49.229Z,24.30
2023-05-16T13:46:21.276Z,22.92
2023-05-16T13:48:53.259Z,21.99
2023-05-16T13:51:24.759Z,20.52
2023-05-16T13:53:56.677Z,20.35
2023-05-16T13:56:28.165Z,20.50
2023-05-16T13:59:04.107Z,20.62
2023-05-16T14:01:37.735Z,21.20
2023-05-16T14:04:09.641Z,22.46
2023-05-16T14:06:43.976Z,23.39
2023-05-16T14:09:17.594Z,22.43
2023-05-16T14:11:49.092Z,21.20
2023-05-16T14:14:20.870Z,21.11
2023-05-16T14:16:52.937Z,20.65
2023-05-16T14:19:25.099Z,20.51
2023-05-16T14:21:57.060Z,20.12
2023-05-16T14:24:28.552Z,20.10
2023-05-16T14:27:00.107Z,19.59
2023-05-16T14:29:31.607Z,19.39
2023-05-16T14:32:03.544Z,19.52
2023-05-16T14:34:35.092Z,19.61
2023-05-16T14:37:06.652Z,19.81
2023-05-16T14:39:38.141Z,19.57
2023-05-16T14:42:12.174Z,19.45
2023-05-16T14:44:43.700Z,19.39
2023-05-16T14:47:15.202Z,18.90
2023-05-16T14:49:47.040Z,18.71
2023-05-16T14:52:18.527Z,19.51
2023-05-16T14:54:50.228Z,19.98
2023-05-16T14:57:21.712Z,19.58
2023-05-16T14:59:53.381Z,19.43
2023-05-16T15:02:24.920Z,18.84
2023-05-16T15:04:56.837Z,20.39
2023-05-16T15:07:28.361Z,21.82
2023-05-16T15:10:00.277Z,22.06
2023-05-16T15:12:31.803Z,20.75
2023-05-16T15:15:03.629Z,19.72
2023-05-16T15:17:35.170Z,18.92
2023-05-16T15:20:07.025Z,18.56
2023-05-16T15:22:38.515Z,18.26
2023-05-16T15:25:09.993Z,18.29
2023-05-16T15:27:41.486Z,18.67
2023-05-16T15:30:13.014Z,18.60
2023-05-16T15:32:45.107Z,19.95
2023-05-16T15:35:16.620Z,19.07
2023-05-16T15:37:48.465Z,20.72
2023-05-16T15:40:25.013Z,20.18
2023-05-16T15:42:58.882Z,20.82
2023-05-16T15:45:30.503Z,21.06
2023-05-16T15:48:02.369Z,21.36
2023-05-16T15:50:33.913Z,21.89
2023-05-16T15:53:05.756Z,21.25
2023-05-16T15:55:37.309Z,21.01
2023-05-16T15:58:08.825Z,20.52
2023-05-16T16:00:40.349Z,19.14
2023-05-16T16:03:11.949Z,19.16
2023-05-16T16:05:43.503Z,19.88
2023-05-16T16:08:14.985Z,20.29
2023-05-16T16:10:46.492Z,19.68
2023-05-16T16:13:18.131Z,19.71
2023-05-16T16:15:49.794Z,19.23
2023-05-16T16:18:21.329Z,18.75
2023-05-16T16:20:53.225Z,18.76
2023-05-16T16:23:24.740Z,18.98
2023-05-16T16:25:56.766Z,18.78
2023-05-16T16:28:28.594Z,19.43
2023-05-16T16:31:00.119Z,19.00
2023-05-16T16:33:31.649Z,19.09
2023-05-16T16:36:03.154Z,19.12
2023-05-16T16:38:34.673Z,19.21
2023-05-16T16:41:09.096Z,18.72
2023-05-16T16:43:40.667Z,18.22
2023-05-16T16:46:12.236Z,18.31
2023-05-16T16:48:44.049Z,18.06
2023-05-16T16:51:15.568Z,17.71
2023-05-16T16:53:47.120Z,17.49
2023-05-16T16:56:18.645Z,17.73
2023-05-16T16:58:50.435Z,17.95
2023-05-16T17:01:22.167Z,17.74
2023-05-16T17:03:53.744Z,17.56
2023-05-16T17:06:25.632Z,17.20
2023-05-16T17:08:57.133Z,17.19
2023-05-16T17:11:29.088Z,17.10
2023-05-16T17:14:00.636Z,17.12
2023-05-16T17:16:32.245Z,16.91
2023-05-16T17:19:03.857Z,16.85
2023-05-16T17:21:35.458Z,16.87
2023-05-16T17:24:06.992Z,16.83
2023-05-16T17:26:38.548Z,16.63
2023-05-16T17:29:10.102Z,16.30
2023-05-16T17:31:41.880Z,16.04
2023-05-16T17:34:13.362Z,15.89
2023-05-16T17:36:45.319Z,15.95
2023-05-16T17:39:16.820Z,15.78
2023-05-16T17:41:48.659Z,15.72
2023-05-16T17:44:20.529Z,15.73
2023-05-16T17:46:52.028Z,15.60
2023-05-16T17:49:23.660Z,14.97
2023-05-16T17:51:55.177Z,15.39
2023-05-16T17:54:26.928Z,15.43
2023-05-16T17:56:58.410Z,15.32
2023-05-16T17:59:30.260Z,15.35
2023-05-16T18:02:01.734Z,15.34
2023-05-16T18:04:33.540Z,15.35
2023-05-16T18:07:05.062Z,15.29
2023-05-16T18:09:36.586Z,15.33
2023-05-16T18:12:08.204Z,15.29
2023-05-16T18:14:39.711Z,15.01
2023-05-16T18:17:11.232Z,13.91
2023-05-16T18:19:42.937Z,14.76
2023-05-16T18:22:14.724Z,14.61
2023-05-16T18:24:46.370Z,14.58
2023-05-16T18:27:17.868Z,14.44
2023-05-16T18:29:49.367Z,14.40
2023-05-16T18:32:20.854Z,14.30
2023-05-16T18:34:52.455Z,14.23
2023-05-16T18:37:23.968Z,14.14
2023-05-16T18:39:55.526Z,13.42
2023-05-16T18:42:27.406Z,13.87
2023-05-16T18:44:58.934Z,13.69
2023-05-16T18:47:30.804Z,13.67
2023-05-16T18:50:03.008Z,13.55
2023-05-16T18:52:34.519Z,13.44
2023-05-16T18:55:06.313Z,13.36
2023-05-16T18:57:37.835Z,13.39
2023-05-16T19:00:09.563Z,13.31
2023-05-16T19:02:42.574Z,13.26
2023-05-16T19:05:14.587Z,13.09
2023-05-16T19:07:46.190Z,13.05
2023-05-16T19:10:18.056Z,12.98
2023-05-16T19:12:49.662Z,12.93
2023-05-16T19:15:21.347Z,12.89
2023-05-16T19:17:52.998Z,12.84
2023-05-16T19:20:24.971Z,12.79
2023-05-16T19:22:56.789Z,12.76
2023-05-16T19:25:28.302Z,12.68
2023-05-16T19:27:59.916Z,12.55
2023-05-16T19:30:31.431Z,12.49
2023-05-16T19:33:03.229Z,12.44
2023-05-16T19:35:34.756Z,12.36
2023-05-16T19:38:06.578Z,12.28
2023-05-16T19:40:38.065Z,12.23
2023-05-16T19:43:09.590Z,12.13
2023-05-16T19:45:41.091Z,12.06
2023-05-16T19:48:14.200Z,11.97
2023-05-16T19:50:45.741Z,11.92
2023-05-16T19:53:17.226Z,11.89
2023-05-16T19:55:48.736Z,11.84
2023-05-16T19:58:20.545Z,11.81
2023-05-16T20:00:52.304Z,11.72
2023-05-16T20:03:23.856Z,11.66
2023-05-16T20:05:55.441Z,11.66
2023-05-16T20:08:26.947Z,11.63
2023-05-16T20:10:58.901Z,11.56
2023-05-16T20:13:30.375Z,11.53
2023-05-16T20:16:01.890Z,11.48
2023-05-16T20:18:33.472Z,11.41
2023-05-16T20:21:05.249Z,11.30
2023-05-16T20:23:36.760Z,11.30
2023-05-16T20:26:08.735Z,11.19
2023-05-16T20:28:40.246Z,11.17
2023-05-16T20:31:11.940Z,11.17
2023-05-16T20:33:43.872Z,11.11
2023-05-16T20:36:15.432Z,11.06
2023-05-16T20:38:47.300Z,11.02
2023-05-16T20:41:18.825Z,11.01
2023-05-16T20:43:50.655Z,10.94
2023-05-16T20:46:22.241Z,10.86
2023-05-16T20:48:54.217Z,10.82
2023-05-16T20:51:25.801Z,10.78
2023-05-16T20:53:57.829Z,10.73
2023-05-16T20:56:29.341Z,10.68
2023-05-16T20:59:01.154Z,10.61
2023-05-16T21:01:32.646Z,10.59
2023-05-16T21:04:04.353Z,10.52
2023-05-16T21:06:35.933Z,10.49
2023-05-16T21:09:07.588Z,10.44
2023-05-16T21:11:39.083Z,10.40
2023-05-16T21:14:10.620Z,10.38
2023-05-16T21:16:42.461Z,10.29
2023-05-16T21:19:14.121Z,10.30
2023-05-16T21:21:46.060Z,10.28
2023-05-16T21:24:17.562Z,10.23
2023-05-16T21:26:49.400Z,10.19
2023-05-16T21:29:20.931Z,10.15
2023-05-16T21:31:52.789Z,10.12
2023-05-16T21:34:24.325Z,10.04
2023-05-16T21:36:56.169Z,9.99
2023-05-16T21:39:27.688Z,9.98
2023-05-16T21:41:59.219Z,9.92
2023-05-16T21:44:30.918Z,9.87
2023-05-16T21:47:02.464Z,9.80
2023-05-16T21:49:33.993Z,9.79
2023-05-16T21:52:07.076Z,9.72
2023-05-16T21:54:39.230Z,9.68
2023-05-16T21:57:10.755Z,9.66
2023-05-16T21:59:42.573Z,9.61
2023-05-16T22:02:14.093Z,9.54
2023-05-16T22:04:45.999Z,9.54
2023-05-16T22:07:17.533Z,9.55
2023-05-16T22:09:49.441Z,9.50
2023-05-16T22:12:20.944Z,9.47
2023-05-16T22:14:52.745Z,9.43
2023-05-16T22:17:24.292Z,9.42
2023-05-16T22:19:56.157Z,9.38
2023-05-16T22:22:27.840Z,9.36
2023-05-16T22:24:59.336Z,9.35
2023-05-16T22:27:31.362Z,9.30
2023-05-16T22:30:02.872Z,8.48
2023-05-16T22:32:34.458Z,9.24
2023-05-16T22:35:05.969Z,9.20
2023-05-16T22:37:37.623Z,9.19
2023-05-16T22:40:09.181Z,9.15
2023-05-16T22:42:40.696Z,9.14
2023-05-16T22:45:12.246Z,9.11
2023-05-16T22:47:44.099Z,9.07
2023-05-16T22:50:15.645Z,9.02
2023-05-16T22:52:47.496Z,9.00
2023-05-16T22:55:19.360Z,8.99
2023-05-16T22:57:51.163Z,9.00
2023-05-16T23:00:23.072Z,8.98
2023-05-16T23:02:54.633Z,8.94
2023-05-16T23:05:26.692Z,8.92
2023-05-16T23:07:58.299Z,8.88
2023-05-16T23:10:30.128Z,8.89
2023-05-16T23:13:01.735Z,8.86
2023-05-16T23:15:33.571Z,8.85
2023-05-16T23:18:05.176Z,8.81
2023-05-16T23:20:36.743Z,8.80
2023-05-16T23:23:08.594Z,8.78
2023-05-16T23:25:40.118Z,8.76
2023-05-16T23:28:12.078Z,8.74
2023-05-16T23:30:43.567Z,8.68
2023-05-16T23:33:15.510Z,8.61
2023-05-16T23:35:47.131Z,8.61
2023-05-16T23:38:18.942Z,8.61
2023-05-16T23:40:50.453Z,8.59
2023-05-16T23:43:22.302Z,8.58
2023-05-16T23:45:53.864Z,8.55
2023-05-16T23:48:25.986Z,8.52
2023-05-16T23:50:57.630Z,8.53
2023-05-16T23:53:29.589Z,8.46
2023-05-16T23:56:01.142Z,8.43
2023-05-16T23:58:33.027Z,8.43
